KLUA

Luray Caverns Airport

Luray, Virginia, USA
METAR KLUA 212015Z AUTO 16006KT 10SM SCT050 OVC075 18/06 A3011 RMK AO2
Observed Flight Rules
Jan-21 @ 20:15 UTC (16 minutes ago) Visual Flight Rules
Wind Visibility Clouds
160° at 6 knots 10 miles
  • Scattered at 5,000' AGL
  • Overcast at 7,500' AGL
Temperatures Readings
Current 18°C / 64°F
Dewpoint 6°C / 43°F
Humidity 46%
Altimeter 30.11" Hg
Pressure 1020 hPa
Elevation 275
METAR KLUA 212015Z AUTO 16006KT 10SM SCT050 OVC075 18/06 A3011 RMK AO2
Observed Flight Rules
Jan-21 @ 20:15 UTC
(16 minutes ago)
VFR
Wind Visibility
160° at 6 knots 10 miles
Clouds
  • Scattered at 5,000' AGL
  • Overcast at 7,500' AGL
Temperature Dewpoint
18°C / 64°F 6°C / 43°F
Humidity Altimeter Pressure
46% 30.11" Hg 1020 hPa